sensor_id;sensor_type;location;lat;lon;timestamp;temperature;humidity
20998;DHT22;10657;51.276;6.390;2022-12-07T00:01:44;4.80;99.90
20998;DHT22;10657;51.276;6.390;2022-12-07T00:04:14;4.80;99.90
20998;DHT22;10657;51.276;6.390;2022-12-07T00:06:43;4.70;99.90
20998;DHT22;10657;51.276;6.390;2022-12-07T00:09:13;4.80;99.90
20998;DHT22;10657;51.276;6.390;2022-12-07T00:11:40;4.80;99.90
20998;DHT22;10657;51.276;6.390;2022-12-07T00:14:10;4.80;99.90
20998;DHT22;10657;51.276;6.390;2022-12-07T00:16:37;4.80;99.90
20998;DHT22;10657;51.276;6.390;2022-12-07T00:19:04;4.80;99.90
20998;DHT22;10657;51.276;6.390;2022-12-07T00:21:33;4.80;99.90
20998;DHT22;10657;51.276;6.390;2022-12-07T00:24:00;4.80;99.90
20998;DHT22;10657;51.276;6.390;2022-12-07T00:26:36;4.80;99.90
20998;DHT22;10657;51.276;6.390;2022-12-07T00:29:06;4.80;99.90
20998;DHT22;10657;51.276;6.390;2022-12-07T00:31:34;4.80;99.90
20998;DHT22;10657;51.276;6.390;2022-12-07T00:34:06;4.80;99.90
20998;DHT22;10657;51.276;6.390;2022-12-07T00:36:33;4.70;99.90
20998;DHT22;10657;51.276;6.390;2022-12-07T00:39:00;4.80;99.90
20998;DHT22;10657;51.276;6.390;2022-12-07T00:41:29;4.80;99.90
20998;DHT22;10657;51.276;6.390;2022-12-07T00:43:56;4.80;99.90
20998;DHT22;10657;51.276;6.390;2022-12-07T00:46:23;4.80;99.90
20998;DHT22;10657;51.276;6.390;2022-12-07T00:48:51;4.80;99.90
20998;DHT22;10657;51.276;6.390;2022-12-07T00:51:19;4.80;99.90
20998;DHT22;10657;51.276;6.390;2022-12-07T00:53:46;4.80;99.90
20998;DHT22;10657;51.276;6.390;2022-12-07T00:56:39;4.80;99.90
20998;DHT22;10657;51.276;6.390;2022-12-07T00:59:06;4.80;99.90
20998;DHT22;10657;51.276;6.390;2022-12-07T01:01:36;4.80;99.90
20998;DHT22;10657;51.276;6.390;2022-12-07T01:04:04;4.80;99.90
20998;DHT22;10657;51.276;6.390;2022-12-07T01:06:31;4.70;99.90
20998;DHT22;10657;51.276;6.390;2022-12-07T01:08:57;4.80;99.90
20998;DHT22;10657;51.276;6.390;2022-12-07T01:11:27;4.70;99.90
20998;DHT22;10657;51.276;6.390;2022-12-07T01:13:56;4.70;99.90
20998;DHT22;10657;51.276;6.390;2022-12-07T01:16:25;4.70;99.90
20998;DHT22;10657;51.276;6.390;2022-12-07T01:18:53;4.70;99.90
20998;DHT22;10657;51.276;6.390;2022-12-07T01:21:23;4.70;99.90
20998;DHT22;10657;51.276;6.390;2022-12-07T01:23:50;4.70;99.90
20998;DHT22;10657;51.276;6.390;2022-12-07T01:26:19;4.70;99.90
20998;DHT22;10657;51.276;6.390;2022-12-07T01:28:46;4.70;99.90
20998;DHT22;10657;51.276;6.390;2022-12-07T01:31:18;4.70;99.90
20998;DHT22;10657;51.276;6.390;2022-12-07T01:33:48;4.70;99.90
20998;DHT22;10657;51.276;6.390;2022-12-07T01:36:27;4.70;99.90
20998;DHT22;10657;51.276;6.390;2022-12-07T01:38:59;4.60;99.90
20998;DHT22;10657;51.276;6.390;2022-12-07T01:41:30;4.70;99.90
20998;DHT22;10657;51.276;6.390;2022-12-07T01:44:10;4.70;99.90
20998;DHT22;10657;51.276;6.390;2022-12-07T01:46:38;4.70;99.90
20998;DHT22;10657;51.276;6.390;2022-12-07T01:49:08;4.60;99.90
20998;DHT22;10657;51.276;6.390;2022-12-07T01:51:37;4.70;99.90
20998;DHT22;10657;51.276;6.390;2022-12-07T01:54:06;4.70;99.90
20998;DHT22;10657;51.276;6.390;2022-12-07T01:56:33;4.60;99.90
20998;DHT22;10657;51.276;6.390;2022-12-07T01:59:00;4.60;99.90
20998;DHT22;10657;51.276;6.390;2022-12-07T02:01:27;4.50;99.90
20998;DHT22;10657;51.276;6.390;2022-12-07T02:03:55;4.60;99.90
20998;DHT22;10657;51.276;6.390;2022-12-07T02:06:24;4.50;99.90
20998;DHT22;10657;51.276;6.390;2022-12-07T02:08:52;4.60;99.90
20998;DHT22;10657;51.276;6.390;2022-12-07T02:11:20;4.50;99.90
20998;DHT22;10657;51.276;6.390;2022-12-07T02:13:47;4.50;99.90
20998;DHT22;10657;51.276;6.390;2022-12-07T02:16:31;4.50;99.90
20998;DHT22;10657;51.276;6.390;2022-12-07T02:22:49;4.40;99.90
20998;DHT22;10657;51.276;6.390;2022-12-07T02:28:17;4.50;99.90
20998;DHT22;10657;51.276;6.390;2022-12-07T02:30:47;4.50;99.90
20998;DHT22;10657;51.276;6.390;2022-12-07T02:33:28;4.50;99.90
20998;DHT22;10657;51.276;6.390;2022-12-07T02:36:01;4.50;99.90
20998;DHT22;10657;51.276;6.390;2022-12-07T02:38:38;4.50;99.90
20998;DHT22;10657;51.276;6.390;2022-12-07T02:44:05;4.50;99.90
20998;DHT22;10657;51.276;6.390;2022-12-07T02:46:42;4.50;99.90
20998;DHT22;10657;51.276;6.390;2022-12-07T02:49:11;4.50;99.90
20998;DHT22;10657;51.276;6.390;2022-12-07T02:51:43;4.50;99.90
20998;DHT22;10657;51.276;6.390;2022-12-07T02:54:15;4.50;99.90
20998;DHT22;10657;51.276;6.390;2022-12-07T03:04:46;4.40;99.90
20998;DHT22;10657;51.276;6.390;2022-12-07T03:07:25;4.40;99.90
20998;DHT22;10657;51.276;6.390;2022-12-07T03:13:01;4.40;99.90
20998;DHT22;10657;51.276;6.390;2022-12-07T03:15:43;4.40;99.90
20998;DHT22;10657;51.276;6.390;2022-12-07T03:18:14;4.40;99.90
20998;DHT22;10657;51.276;6.390;2022-12-07T03:20:44;4.40;99.90
20998;DHT22;10657;51.276;6.390;2022-12-07T03:23:12;4.40;99.90
20998;DHT22;10657;51.276;6.390;2022-12-07T03:25:45;4.40;99.90
20998;DHT22;10657;51.276;6.390;2022-12-07T03:28:17;4.40;99.90
20998;DHT22;10657;51.276;6.390;2022-12-07T03:31:05;4.50;99.90
20998;DHT22;10657;51.276;6.390;2022-12-07T03:33:42;4.50;99.90
20998;DHT22;10657;51.276;6.390;2022-12-07T03:36:20;4.50;99.90
20998;DHT22;10657;51.276;6.390;2022-12-07T03:39:00;4.50;99.90
20998;DHT22;10657;51.276;6.390;2022-12-07T03:41:34;4.40;99.90
20998;DHT22;10657;51.276;6.390;2022-12-07T03:44:06;4.40;99.90
20998;DHT22;10657;51.276;6.390;2022-12-07T03:49:43;4.40;99.90
20998;DHT22;10657;51.276;6.390;2022-12-07T03:57:30;4.30;99.90
20998;DHT22;10657;51.276;6.390;2022-12-07T03:59:57;4.30;99.90
20998;DHT22;10657;51.276;6.390;2022-12-07T04:02:26;4.30;99.90
20998;DHT22;10657;51.276;6.390;2022-12-07T04:04:55;4.30;99.90
20998;DHT22;10657;51.276;6.390;2022-12-07T04:07:22;4.30;99.90
20998;DHT22;10657;51.276;6.390;2022-12-07T04:09:48;4.30;99.90
20998;DHT22;10657;51.276;6.390;2022-12-07T04:12:15;4.30;99.90
20998;DHT22;10657;51.276;6.390;2022-12-07T04:14:42;4.40;99.90
20998;DHT22;10657;51.276;6.390;2022-12-07T04:17:09;4.30;99.90
20998;DHT22;10657;51.276;6.390;2022-12-07T04:19:35;4.30;99.90
20998;DHT22;10657;51.276;6.390;2022-12-07T04:22:03;4.30;99.90
20998;DHT22;10657;51.276;6.390;2022-12-07T04:24:30;4.30;99.90
20998;DHT22;10657;51.276;6.390;2022-12-07T04:26:57;4.40;99.90
20998;DHT22;10657;51.276;6.390;2022-12-07T04:29:24;4.40;99.90
20998;DHT22;10657;51.276;6.390;2022-12-07T04:31:52;4.40;99.90
20998;DHT22;10657;51.276;6.390;2022-12-07T04:34:19;4.40;99.90
20998;DHT22;10657;51.276;6.390;2022-12-07T04:36:46;4.40;99.90
20998;DHT22;10657;51.276;6.390;2022-12-07T04:39:27;4.40;99.90
20998;DHT22;10657;51.276;6.390;2022-12-07T04:41:55;4.40;99.90
20998;DHT22;10657;51.276;6.390;2022-12-07T04:44:23;4.30;99.90
20998;DHT22;10657;51.276;6.390;2022-12-07T04:46:50;4.30;99.90
20998;DHT22;10657;51.276;6.390;2022-12-07T04:49:18;4.30;99.90
20998;DHT22;10657;51.276;6.390;2022-12-07T04:51:46;4.30;99.90
20998;DHT22;10657;51.276;6.390;2022-12-07T04:54:14;4.30;99.90
20998;DHT22;10657;51.276;6.390;2022-12-07T04:56:43;4.20;99.90
20998;DHT22;10657;51.276;6.390;2022-12-07T04:59:11;4.20;99.90
20998;DHT22;10657;51.276;6.390;2022-12-07T05:01:38;4.20;99.90
20998;DHT22;10657;51.276;6.390;2022-12-07T05:04:05;4.10;99.90
20998;DHT22;10657;51.276;6.390;2022-12-07T05:06:32;4.10;99.90
20998;DHT22;10657;51.276;6.390;2022-12-07T05:08:58;4.10;99.90
20998;DHT22;10657;51.276;6.390;2022-12-07T05:11:25;4.20;99.90
20998;DHT22;10657;51.276;6.390;2022-12-07T05:14:16;4.20;99.90
20998;DHT22;10657;51.276;6.390;2022-12-07T05:16:44;4.20;99.90
20998;DHT22;10657;51.276;6.390;2022-12-07T05:19:12;4.20;99.90
20998;DHT22;10657;51.276;6.390;2022-12-07T05:21:39;4.20;99.90
20998;DHT22;10657;51.276;6.390;2022-12-07T05:24:08;4.20;99.90
20998;DHT22;10657;51.276;6.390;2022-12-07T05:26:36;4.20;99.90
20998;DHT22;10657;51.276;6.390;2022-12-07T05:29:03;4.20;99.90
20998;DHT22;10657;51.276;6.390;2022-12-07T05:31:30;4.30;99.90
20998;DHT22;10657;51.276;6.390;2022-12-07T05:33:56;4.30;99.90
20998;DHT22;10657;51.276;6.390;2022-12-07T05:36:23;4.30;99.90
20998;DHT22;10657;51.276;6.390;2022-12-07T05:38:50;4.30;99.90
20998;DHT22;10657;51.276;6.390;2022-12-07T05:41:18;4.30;99.90
20998;DHT22;10657;51.276;6.390;2022-12-07T05:44:04;4.30;99.90
20998;DHT22;10657;51.276;6.390;2022-12-07T05:46:31;4.30;99.90
20998;DHT22;10657;51.276;6.390;2022-12-07T05:48:58;4.30;99.90
20998;DHT22;10657;51.276;6.390;2022-12-07T05:51:24;4.20;99.90
20998;DHT22;10657;51.276;6.390;2022-12-07T05:53:51;4.20;99.90
20998;DHT22;10657;51.276;6.390;2022-12-07T05:56:17;4.20;99.90
20998;DHT22;10657;51.276;6.390;2022-12-07T05:58:44;4.20;99.90
20998;DHT22;10657;51.276;6.390;2022-12-07T06:01:30;4.30;99.90
20998;DHT22;10657;51.276;6.390;2022-12-07T06:03:56;4.30;99.90
20998;DHT22;10657;51.276;6.390;2022-12-07T06:06:23;4.20;99.90
20998;DHT22;10657;51.276;6.390;2022-12-07T06:08:50;4.10;99.90
20998;DHT22;10657;51.276;6.390;2022-12-07T06:11:16;4.20;99.90
20998;DHT22;10657;51.276;6.390;2022-12-07T06:14:02;4.20;99.90
20998;DHT22;10657;51.276;6.390;2022-12-07T06:16:28;4.20;99.90
20998;DHT22;10657;51.276;6.390;2022-12-07T06:18:55;4.20;99.90
20998;DHT22;10657;51.276;6.390;2022-12-07T06:21:22;4.20;99.90
20998;DHT22;10657;51.276;6.390;2022-12-07T06:23:48;4.20;99.90
20998;DHT22;10657;51.276;6.390;2022-12-07T06:26:15;4.10;99.90
20998;DHT22;10657;51.276;6.390;2022-12-07T06:28:42;4.20;99.90
20998;DHT22;10657;51.276;6.390;2022-12-07T06:31:09;4.20;99.90
20998;DHT22;10657;51.276;6.390;2022-12-07T06:33:40;4.20;99.90
20998;DHT22;10657;51.276;6.390;2022-12-07T06:36:08;4.20;99.90
20998;DHT22;10657;51.276;6.390;2022-12-07T06:38:35;4.20;99.90
20998;DHT22;10657;51.276;6.390;2022-12-07T06:41:01;4.20;99.90
20998;DHT22;10657;51.276;6.390;2022-12-07T06:43:29;4.20;99.90
20998;DHT22;10657;51.276;6.390;2022-12-07T06:45:56;4.20;99.90
20998;DHT22;10657;51.276;6.390;2022-12-07T06:48:23;4.20;99.90
20998;DHT22;10657;51.276;6.390;2022-12-07T06:50:49;4.20;99.90
20998;DHT22;10657;51.276;6.390;2022-12-07T06:53:21;4.20;99.90
20998;DHT22;10657;51.276;6.390;2022-12-07T06:55:47;4.10;99.90
20998;DHT22;10657;51.276;6.390;2022-12-07T06:58:14;4.10;99.90
20998;DHT22;10657;51.276;6.390;2022-12-07T07:00:40;4.10;99.90
20998;DHT22;10657;51.276;6.390;2022-12-07T07:03:07;4.10;99.90
20998;DHT22;10657;51.276;6.390;2022-12-07T07:05:34;4.10;99.90
20998;DHT22;10657;51.276;6.390;2022-12-07T07:08:01;4.10;99.90
20998;DHT22;10657;51.276;6.390;2022-12-07T07:10:47;4.00;99.90
20998;DHT22;10657;51.276;6.390;2022-12-07T07:13:14;4.10;99.90
20998;DHT22;10657;51.276;6.390;2022-12-07T07:15:41;4.10;99.90
20998;DHT22;10657;51.276;6.390;2022-12-07T07:18:07;4.10;99.90
20998;DHT22;10657;51.276;6.390;2022-12-07T07:20:34;4.10;99.90
20998;DHT22;10657;51.276;6.390;2022-12-07T07:23:01;4.10;99.90
20998;DHT22;10657;51.276;6.390;2022-12-07T07:25:28;4.10;99.90
20998;DHT22;10657;51.276;6.390;2022-12-07T07:27:54;4.10;99.90
20998;DHT22;10657;51.276;6.390;2022-12-07T07:30:21;4.00;99.90
20998;DHT22;10657;51.276;6.390;2022-12-07T07:32:48;3.90;99.90
20998;DHT22;10657;51.276;6.390;2022-12-07T07:35:15;3.90;99.90
20998;DHT22;10657;51.276;6.390;2022-12-07T07:37:42;3.90;99.90
20998;DHT22;10657;51.276;6.390;2022-12-07T07:40:09;3.90;99.90
20998;DHT22;10657;51.276;6.390;2022-12-07T07:42:36;3.90;99.90
20998;DHT22;10657;51.276;6.390;2022-12-07T07:45:03;3.90;99.90
20998;DHT22;10657;51.276;6.390;2022-12-07T07:47:30;3.80;99.90
20998;DHT22;10657;51.276;6.390;2022-12-07T07:49:57;3.80;99.90
20998;DHT22;10657;51.276;6.390;2022-12-07T07:52:24;3.80;99.90
20998;DHT22;10657;51.276;6.390;2022-12-07T07:54:50;3.70;99.90
20998;DHT22;10657;51.276;6.390;2022-12-07T07:57:17;3.80;99.90
20998;DHT22;10657;51.276;6.390;2022-12-07T07:59:44;3.80;99.90
20998;DHT22;10657;51.276;6.390;2022-12-07T08:02:16;3.80;99.90
20998;DHT22;10657;51.276;6.390;2022-12-07T08:04:43;3.90;99.90
20998;DHT22;10657;51.276;6.390;2022-12-07T08:07:11;3.90;99.90
20998;DHT22;10657;51.276;6.390;2022-12-07T08:09:38;3.90;99.90
20998;DHT22;10657;51.276;6.390;2022-12-07T08:12:05;4.00;99.90
20998;DHT22;10657;51.276;6.390;2022-12-07T08:14:32;4.00;99.90
20998;DHT22;10657;51.276;6.390;2022-12-07T08:16:59;4.00;99.90
20998;DHT22;10657;51.276;6.390;2022-12-07T08:19:26;4.00;99.90
20998;DHT22;10657;51.276;6.390;2022-12-07T08:21:52;4.00;99.90
20998;DHT22;10657;51.276;6.390;2022-12-07T08:24:19;4.00;99.90
20998;DHT22;10657;51.276;6.390;2022-12-07T08:26:45;4.00;99.90
20998;DHT22;10657;51.276;6.390;2022-12-07T08:29:12;4.00;99.90
20998;DHT22;10657;51.276;6.390;2022-12-07T08:31:39;4.00;99.90
20998;DHT22;10657;51.276;6.390;2022-12-07T08:34:06;3.90;99.90
20998;DHT22;10657;51.276;6.390;2022-12-07T08:36:32;3.90;99.90
20998;DHT22;10657;51.276;6.390;2022-12-07T08:38:59;4.00;99.90
20998;DHT22;10657;51.276;6.390;2022-12-07T08:41:46;4.00;99.90
20998;DHT22;10657;51.276;6.390;2022-12-07T08:44:12;4.00;99.90
20998;DHT22;10657;51.276;6.390;2022-12-07T08:46:47;4.10;99.90
20998;DHT22;10657;51.276;6.390;2022-12-07T08:49:30;4.10;99.90
20998;DHT22;10657;51.276;6.390;2022-12-07T08:51:58;4.10;99.90
20998;DHT22;10657;51.276;6.390;2022-12-07T08:54:25;4.10;99.90
20998;DHT22;10657;51.276;6.390;2022-12-07T08:56:54;4.10;99.90
20998;DHT22;10657;51.276;6.390;2022-12-07T08:59:26;4.10;99.90
20998;DHT22;10657;51.276;6.390;2022-12-07T09:01:53;4.00;99.90
20998;DHT22;10657;51.276;6.390;2022-12-07T09:04:19;4.10;99.90
20998;DHT22;10657;51.276;6.390;2022-12-07T09:06:47;4.10;99.90
20998;DHT22;10657;51.276;6.390;2022-12-07T09:09:14;4.10;99.90
20998;DHT22;10657;51.276;6.390;2022-12-07T09:11:41;4.20;99.90
20998;DHT22;10657;51.276;6.390;2022-12-07T09:14:08;4.20;99.90
20998;DHT22;10657;51.276;6.390;2022-12-07T09:16:34;4.30;99.90
20998;DHT22;10657;51.276;6.390;2022-12-07T09:19:01;4.30;99.90
20998;DHT22;10657;51.276;6.390;2022-12-07T09:21:28;4.30;99.90
20998;DHT22;10657;51.276;6.390;2022-12-07T09:23:54;4.30;99.90
20998;DHT22;10657;51.276;6.390;2022-12-07T09:26:21;4.30;99.90
20998;DHT22;10657;51.276;6.390;2022-12-07T09:28:48;4.30;99.90
20998;DHT22;10657;51.276;6.390;2022-12-07T09:31:15;4.30;99.90
20998;DHT22;10657;51.276;6.390;2022-12-07T09:33:58;4.30;99.90
20998;DHT22;10657;51.276;6.390;2022-12-07T09:36:27;4.30;99.90
20998;DHT22;10657;51.276;6.390;2022-12-07T09:38:54;4.30;99.90
20998;DHT22;10657;51.276;6.390;2022-12-07T09:41:22;4.30;99.90
20998;DHT22;10657;51.276;6.390;2022-12-07T09:43:49;4.40;99.90
20998;DHT22;10657;51.276;6.390;2022-12-07T09:46:17;4.50;99.90
20998;DHT22;10657;51.276;6.390;2022-12-07T09:48:45;4.50;99.90
20998;DHT22;10657;51.276;6.390;2022-12-07T09:51:22;4.60;99.90
20998;DHT22;10657;51.276;6.390;2022-12-07T09:53:56;4.60;99.90
20998;DHT22;10657;51.276;6.390;2022-12-07T09:56:24;4.60;99.90
20998;DHT22;10657;51.276;6.390;2022-12-07T09:59:00;4.60;99.90
20998;DHT22;10657;51.276;6.390;2022-12-07T10:01:30;4.70;99.90
20998;DHT22;10657;51.276;6.390;2022-12-07T10:04:16;4.80;99.90
20998;DHT22;10657;51.276;6.390;2022-12-07T10:06:44;4.80;99.90
20998;DHT22;10657;51.276;6.390;2022-12-07T10:09:14;4.90;99.90
20998;DHT22;10657;51.276;6.390;2022-12-07T10:12:03;4.90;99.90
20998;DHT22;10657;51.276;6.390;2022-12-07T10:14:32;4.90;99.90
20998;DHT22;10657;51.276;6.390;2022-12-07T10:17:38;5.00;99.90
20998;DHT22;10657;51.276;6.390;2022-12-07T10:20:20;5.10;99.90
20998;DHT22;10657;51.276;6.390;2022-12-07T10:23:00;5.10;99.90
20998;DHT22;10657;51.276;6.390;2022-12-07T10:25:33;5.10;99.90
20998;DHT22;10657;51.276;6.390;2022-12-07T10:28:17;5.20;99.90
20998;DHT22;10657;51.276;6.390;2022-12-07T10:31:02;5.20;99.90
20998;DHT22;10657;51.276;6.390;2022-12-07T10:33:37;5.20;99.90
20998;DHT22;10657;51.276;6.390;2022-12-07T10:38:51;5.30;99.90
20998;DHT22;10657;51.276;6.390;2022-12-07T10:41:18;5.30;99.90
20998;DHT22;10657;51.276;6.390;2022-12-07T10:43:54;5.30;99.90
20998;DHT22;10657;51.276;6.390;2022-12-07T10:47:32;5.20;99.90
20998;DHT22;10657;51.276;6.390;2022-12-07T10:49:55;5.20;99.90
20998;DHT22;10657;51.276;6.390;2022-12-07T10:58:24;5.20;99.90
20998;DHT22;10657;51.276;6.390;2022-12-07T11:14:44;5.30;99.90
20998;DHT22;10657;51.276;6.390;2022-12-07T11:33:47;5.80;99.90
20998;DHT22;10657;51.276;6.390;2022-12-07T11:36:37;5.70;99.90
20998;DHT22;10657;51.276;6.390;2022-12-07T11:41:42;5.80;99.90
20998;DHT22;10657;51.276;6.390;2022-12-07T11:49:58;5.90;99.90
20998;DHT22;10657;51.276;6.390;2022-12-07T11:52:43;5.90;99.90
20998;DHT22;10657;51.276;6.390;2022-12-07T11:55:21;5.90;99.90
20998;DHT22;10657;51.276;6.390;2022-12-07T11:57:54;6.00;99.90
20998;DHT22;10657;51.276;6.390;2022-12-07T12:00:23;6.00;99.90
20998;DHT22;10657;51.276;6.390;2022-12-07T12:03:09;6.20;99.90
20998;DHT22;10657;51.276;6.390;2022-12-07T12:05:39;6.20;99.90
20998;DHT22;10657;51.276;6.390;2022-12-07T12:08:20;6.30;99.90
20998;DHT22;10657;51.276;6.390;2022-12-07T12:14:17;6.30;99.90
20998;DHT22;10657;51.276;6.390;2022-12-07T12:20:16;6.20;99.90
20998;DHT22;10657;51.276;6.390;2022-12-07T12:25:35;6.20;99.90
20998;DHT22;10657;51.276;6.390;2022-12-07T12:28:03;6.20;99.90
20998;DHT22;10657;51.276;6.390;2022-12-07T12:30:33;6.20;99.90
20998;DHT22;10657;51.276;6.390;2022-12-07T12:33:25;6.20;99.90
20998;DHT22;10657;51.276;6.390;2022-12-07T12:46:58;6.30;99.90
20998;DHT22;10657;51.276;6.390;2022-12-07T12:51:58;6.30;99.90
20998;DHT22;10657;51.276;6.390;2022-12-07T12:54:31;6.30;99.90
20998;DHT22;10657;51.276;6.390;2022-12-07T12:57:21;6.30;99.90
20998;DHT22;10657;51.276;6.390;2022-12-07T13:04:52;6.30;99.90
20998;DHT22;10657;51.276;6.390;2022-12-07T13:07:55;6.40;99.90
20998;DHT22;10657;51.276;6.390;2022-12-07T13:26:20;6.50;99.90
20998;DHT22;10657;51.276;6.390;2022-12-07T13:31:55;6.60;99.90
20998;DHT22;10657;51.276;6.390;2022-12-07T13:34:34;6.60;99.90
20998;DHT22;10657;51.276;6.390;2022-12-07T13:37:27;6.60;99.90
20998;DHT22;10657;51.276;6.390;2022-12-07T13:40:18;6.60;99.90
20998;DHT22;10657;51.276;6.390;2022-12-07T13:42:45;6.60;99.90
20998;DHT22;10657;51.276;6.390;2022-12-07T13:45:24;6.60;99.90
20998;DHT22;10657;51.276;6.390;2022-12-07T13:48:45;6.60;99.90
20998;DHT22;10657;51.276;6.390;2022-12-07T13:51:24;6.60;99.90
20998;DHT22;10657;51.276;6.390;2022-12-07T13:53:59;6.60;99.90
20998;DHT22;10657;51.276;6.390;2022-12-07T13:56:32;6.60;99.90
20998;DHT22;10657;51.276;6.390;2022-12-07T13:58:59;6.50;99.90
20998;DHT22;10657;51.276;6.390;2022-12-07T14:01:26;6.40;99.90
20998;DHT22;10657;51.276;6.390;2022-12-07T14:03:54;6.40;99.90
20998;DHT22;10657;51.276;6.390;2022-12-07T14:06:24;6.40;99.90
20998;DHT22;10657;51.276;6.390;2022-12-07T14:09:07;6.40;99.90
20998;DHT22;10657;51.276;6.390;2022-12-07T14:11:34;6.40;99.90
20998;DHT22;10657;51.276;6.390;2022-12-07T14:14:02;6.50;99.90
20998;DHT22;10657;51.276;6.390;2022-12-07T14:16:32;6.60;99.90
20998;DHT22;10657;51.276;6.390;2022-12-07T14:19:02;6.60;99.90
20998;DHT22;10657;51.276;6.390;2022-12-07T14:21:31;6.60;99.90
20998;DHT22;10657;51.276;6.390;2022-12-07T14:24:18;6.60;99.90
20998;DHT22;10657;51.276;6.390;2022-12-07T14:26:47;6.50;99.90
20998;DHT22;10657;51.276;6.390;2022-12-07T14:29:30;6.60;99.90
20998;DHT22;10657;51.276;6.390;2022-12-07T14:31:59;6.70;99.90
20998;DHT22;10657;51.276;6.390;2022-12-07T14:34:37;6.70;99.90
20998;DHT22;10657;51.276;6.390;2022-12-07T14:37:06;6.60;99.90
20998;DHT22;10657;51.276;6.390;2022-12-07T14:39:33;6.50;99.90
20998;DHT22;10657;51.276;6.390;2022-12-07T14:42:00;6.50;99.90
20998;DHT22;10657;51.276;6.390;2022-12-07T14:44:26;6.50;99.90
20998;DHT22;10657;51.276;6.390;2022-12-07T14:47:00;6.40;99.90
20998;DHT22;10657;51.276;6.390;2022-12-07T14:49:47;6.40;99.90
20998;DHT22;10657;51.276;6.390;2022-12-07T14:52:20;6.30;99.90
20998;DHT22;10657;51.276;6.390;2022-12-07T14:55:14;6.30;99.90
20998;DHT22;10657;51.276;6.390;2022-12-07T14:57:41;6.20;99.90
20998;DHT22;10657;51.276;6.390;2022-12-07T15:00:10;6.20;99.90
20998;DHT22;10657;51.276;6.390;2022-12-07T15:02:39;6.20;99.90
20998;DHT22;10657;51.276;6.390;2022-12-07T15:05:06;6.10;99.90
20998;DHT22;10657;51.276;6.390;2022-12-07T15:07:41;6.10;99.90
20998;DHT22;10657;51.276;6.390;2022-12-07T15:10:28;6.00;99.90
20998;DHT22;10657;51.276;6.390;2022-12-07T15:13:02;6.00;99.90
20998;DHT22;10657;51.276;6.390;2022-12-07T15:15:49;6.00;99.90
20998;DHT22;10657;51.276;6.390;2022-12-07T15:18:16;6.00;99.90
20998;DHT22;10657;51.276;6.390;2022-12-07T15:20:44;6.00;99.90
20998;DHT22;10657;51.276;6.390;2022-12-07T15:23:11;6.00;99.90
20998;DHT22;10657;51.276;6.390;2022-12-07T15:25:42;5.90;99.90
20998;DHT22;10657;51.276;6.390;2022-12-07T15:28:09;5.90;99.90
20998;DHT22;10657;51.276;6.390;2022-12-07T15:30:41;5.80;99.90
20998;DHT22;10657;51.276;6.390;2022-12-07T15:33:09;5.80;99.90
20998;DHT22;10657;51.276;6.390;2022-12-07T15:35:44;5.80;99.90
20998;DHT22;10657;51.276;6.390;2022-12-07T15:38:11;5.80;99.90
20998;DHT22;10657;51.276;6.390;2022-12-07T15:40:37;5.80;99.90
20998;DHT22;10657;51.276;6.390;2022-12-07T15:43:04;5.70;99.90
20998;DHT22;10657;51.276;6.390;2022-12-07T15:45:31;5.70;99.90
20998;DHT22;10657;51.276;6.390;2022-12-07T15:47:58;5.70;99.90
20998;DHT22;10657;51.276;6.390;2022-12-07T15:50:44;5.60;99.90
20998;DHT22;10657;51.276;6.390;2022-12-07T15:53:11;5.60;99.90
20998;DHT22;10657;51.276;6.390;2022-12-07T15:55:41;5.70;99.90
20998;DHT22;10657;51.276;6.390;2022-12-07T15:58:07;5.60;99.90
20998;DHT22;10657;51.276;6.390;2022-12-07T16:00:34;5.60;99.90
20998;DHT22;10657;51.276;6.390;2022-12-07T16:03:01;5.70;99.90
20998;DHT22;10657;51.276;6.390;2022-12-07T16:05:27;5.60;99.90
20998;DHT22;10657;51.276;6.390;2022-12-07T16:07:54;5.60;99.90
20998;DHT22;10657;51.276;6.390;2022-12-07T16:10:21;5.60;99.90
20998;DHT22;10657;51.276;6.390;2022-12-07T16:12:47;5.50;99.90
20998;DHT22;10657;51.276;6.390;2022-12-07T16:15:14;5.50;99.90
20998;DHT22;10657;51.276;6.390;2022-12-07T16:17:48;5.60;99.90
20998;DHT22;10657;51.276;6.390;2022-12-07T16:20:15;5.50;99.90
20998;DHT22;10657;51.276;6.390;2022-12-07T16:22:41;5.50;99.90
20998;DHT22;10657;51.276;6.390;2022-12-07T16:25:08;5.50;99.90
20998;DHT22;10657;51.276;6.390;2022-12-07T16:27:35;5.50;99.90
20998;DHT22;10657;51.276;6.390;2022-12-07T16:30:01;5.50;99.90
20998;DHT22;10657;51.276;6.390;2022-12-07T16:32:28;5.50;99.90
20998;DHT22;10657;51.276;6.390;2022-12-07T16:34:54;5.50;99.90
20998;DHT22;10657;51.276;6.390;2022-12-07T16:37:21;5.50;99.90
20998;DHT22;10657;51.276;6.390;2022-12-07T16:39:48;5.50;99.90
20998;DHT22;10657;51.276;6.390;2022-12-07T16:42:14;5.50;99.90
20998;DHT22;10657;51.276;6.390;2022-12-07T16:44:41;5.50;99.90
20998;DHT22;10657;51.276;6.390;2022-12-07T16:47:08;5.50;99.90
20998;DHT22;10657;51.276;6.390;2022-12-07T16:49:35;5.50;99.90
20998;DHT22;10657;51.276;6.390;2022-12-07T16:52:01;5.50;99.90
20998;DHT22;10657;51.276;6.390;2022-12-07T16:54:45;5.50;99.90
20998;DHT22;10657;51.276;6.390;2022-12-07T16:57:12;5.60;99.90
20998;DHT22;10657;51.276;6.390;2022-12-07T16:59:47;5.60;99.90
20998;DHT22;10657;51.276;6.390;2022-12-07T17:02:14;5.60;99.90
20998;DHT22;10657;51.276;6.390;2022-12-07T17:04:41;5.60;99.90
20998;DHT22;10657;51.276;6.390;2022-12-07T17:07:09;5.70;99.90
20998;DHT22;10657;51.276;6.390;2022-12-07T17:09:36;5.70;99.90
20998;DHT22;10657;51.276;6.390;2022-12-07T17:12:03;5.70;99.90
20998;DHT22;10657;51.276;6.390;2022-12-07T17:14:32;5.70;99.90
20998;DHT22;10657;51.276;6.390;2022-12-07T17:17:17;5.70;99.90
20998;DHT22;10657;51.276;6.390;2022-12-07T17:19:44;5.70;99.90
20998;DHT22;10657;51.276;6.390;2022-12-07T17:22:11;5.60;99.90
20998;DHT22;10657;51.276;6.390;2022-12-07T17:24:39;5.70;99.90
20998;DHT22;10657;51.276;6.390;2022-12-07T17:27:06;5.70;99.90
20998;DHT22;10657;51.276;6.390;2022-12-07T17:29:32;5.60;99.90
20998;DHT22;10657;51.276;6.390;2022-12-07T17:31:59;5.50;99.90
20998;DHT22;10657;51.276;6.390;2022-12-07T17:34:26;5.50;99.90
20998;DHT22;10657;51.276;6.390;2022-12-07T17:36:53;5.40;99.90
20998;DHT22;10657;51.276;6.390;2022-12-07T17:39:21;5.40;99.90
20998;DHT22;10657;51.276;6.390;2022-12-07T17:41:47;5.40;99.90
20998;DHT22;10657;51.276;6.390;2022-12-07T17:44:33;5.30;99.90
20998;DHT22;10657;51.276;6.390;2022-12-07T17:47:00;5.30;99.90
20998;DHT22;10657;51.276;6.390;2022-12-07T17:49:28;5.30;99.90
20998;DHT22;10657;51.276;6.390;2022-12-07T17:51:55;5.30;99.90
20998;DHT22;10657;51.276;6.390;2022-12-07T17:54:40;5.20;99.90
20998;DHT22;10657;51.276;6.390;2022-12-07T17:57:07;5.20;99.90
20998;DHT22;10657;51.276;6.390;2022-12-07T17:59:34;5.20;99.90
20998;DHT22;10657;51.276;6.390;2022-12-07T18:02:01;5.10;99.90
20998;DHT22;10657;51.276;6.390;2022-12-07T18:04:27;5.20;99.90
20998;DHT22;10657;51.276;6.390;2022-12-07T18:06:54;5.20;99.90
20998;DHT22;10657;51.276;6.390;2022-12-07T18:09:21;5.10;99.90
20998;DHT22;10657;51.276;6.390;2022-12-07T18:11:48;5.10;99.90